createdAt,value
2023-02-12T00:01:08.960Z,2.90
2023-02-12T00:03:37.105Z,2.92
2023-02-12T00:06:07.221Z,2.92
2023-02-12T00:08:35.627Z,2.92
2023-02-12T00:11:09.258Z,2.93
2023-02-12T00:13:37.783Z,2.91
2023-02-12T00:16:07.444Z,2.93
2023-02-12T00:18:35.448Z,2.94
2023-02-12T00:21:04.109Z,2.96
2023-02-12T00:23:33.733Z,2.93
2023-02-12T00:26:01.804Z,2.91
2023-02-12T00:28:29.797Z,2.87
2023-02-12T00:30:57.883Z,2.84
2023-02-12T00:33:28.112Z,2.85
2023-02-12T00:35:58.429Z,2.87
2023-02-12T00:38:26.568Z,2.88
2023-02-12T00:40:55.966Z,2.81
2023-02-12T00:43:23.959Z,2.75
2023-02-12T00:45:51.961Z,2.74
2023-02-12T00:48:21.242Z,2.75
2023-02-12T00:50:49.834Z,2.75
2023-02-12T00:53:18.248Z,2.74
2023-02-12T00:55:46.534Z,2.69
2023-02-12T00:58:18.811Z,2.67
2023-02-12T01:00:47.128Z,2.69
2023-02-12T01:03:15.170Z,2.71
2023-02-12T01:05:43.178Z,2.71
2023-02-12T01:08:13.585Z,2.65
2023-02-12T01:10:41.965Z,2.61
2023-02-12T01:13:13.953Z,2.61
2023-02-12T01:15:43.891Z,2.58
2023-02-12T01:18:12.565Z,2.59
2023-02-12T01:20:40.909Z,2.58
2023-02-12T01:23:09.035Z,2.52
2023-02-12T01:25:38.798Z,2.49
2023-02-12T01:28:06.829Z,2.51
2023-02-12T01:30:34.801Z,2.53
2023-02-12T01:33:04.175Z,2.57
2023-02-12T01:35:32.139Z,2.52
2023-02-12T01:38:00.119Z,2.52
2023-02-12T01:40:28.439Z,2.50
2023-02-12T01:42:56.749Z,2.45
2023-02-12T01:46:00.167Z,2.42
2023-02-12T01:48:33.672Z,2.39
2023-02-12T01:51:03.915Z,2.40
2023-02-12T01:53:38.352Z,2.40
2023-02-12T01:56:07.668Z,2.39
2023-02-12T01:58:39.276Z,2.38
2023-02-12T02:01:14.745Z,2.39
2023-02-12T02:03:46.824Z,2.40
2023-02-12T02:06:18.704Z,2.33
2023-02-12T02:08:47.594Z,2.32
2023-02-12T02:11:33.510Z,2.33
2023-02-12T02:14:19.280Z,2.33
2023-02-12T02:16:55.368Z,2.31
2023-02-12T02:19:37.913Z,2.33
2023-02-12T02:22:21.966Z,2.35
2023-02-12T02:25:09.724Z,2.35
2023-02-12T02:27:48.630Z,2.36
2023-02-12T02:30:35.408Z,2.28
2023-02-12T02:33:16.636Z,2.29
2023-02-12T02:35:53.646Z,2.31
2023-02-12T02:38:30.030Z,2.28
2023-02-12T02:41:06.391Z,2.27
2023-02-12T02:43:39.456Z,2.25
2023-02-12T02:46:15.339Z,2.24
2023-02-12T02:48:47.820Z,2.25
2023-02-12T02:51:20.380Z,2.27
2023-02-12T02:53:52.783Z,2.28
2023-02-12T02:56:24.029Z,2.27
2023-02-12T02:58:56.338Z,2.24
2023-02-12T03:01:30.646Z,2.20
2023-02-12T03:04:04.714Z,2.23
2023-02-12T03:06:40.175Z,2.25
2023-02-12T03:09:18.411Z,2.29
2023-02-12T03:11:47.292Z,2.28
2023-02-12T03:14:19.743Z,2.33
2023-02-12T03:16:54.282Z,2.26
2023-02-12T03:19:26.203Z,2.25
2023-02-12T03:21:58.357Z,2.19
2023-02-12T03:24:31.872Z,2.14
2023-02-12T03:27:06.046Z,2.15
2023-02-12T03:29:34.331Z,2.17
2023-02-12T03:32:18.992Z,2.12
2023-02-12T03:34:51.583Z,2.16
2023-02-12T03:37:23.399Z,2.19
2023-02-12T03:39:57.715Z,2.13
2023-02-12T03:42:36.547Z,2.07
2023-02-12T03:45:11.357Z,2.04
2023-02-12T03:47:47.401Z,2.04
2023-02-12T03:50:19.137Z,2.06
2023-02-12T03:52:48.298Z,2.07
2023-02-12T03:55:18.029Z,2.01
2023-02-12T03:57:50.242Z,2.03
2023-02-12T04:00:21.531Z,2.04
2023-02-12T04:02:51.243Z,2.05
2023-02-12T04:05:22.696Z,2.03
2023-02-12T04:07:51.309Z,2.01
2023-02-12T04:10:23.166Z,2.00
2023-02-12T04:12:55.863Z,1.95
2023-02-12T04:15:40.623Z,1.90
2023-02-12T04:18:16.156Z,1.89
2023-02-12T04:20:54.412Z,1.90
2023-02-12T04:23:39.300Z,1.89
2023-02-12T04:26:13.832Z,1.94
2023-02-12T04:28:49.694Z,1.94
2023-02-12T04:31:24.761Z,1.95
2023-02-12T04:34:06.437Z,1.96
2023-02-12T04:36:40.364Z,2.01
2023-02-12T04:39:13.039Z,1.99
2023-02-12T04:41:41.017Z,1.95
2023-02-12T04:44:20.440Z,1.94
2023-02-12T04:46:48.610Z,1.99
2023-02-12T04:49:20.569Z,1.92
2023-02-12T04:51:48.936Z,1.90
2023-02-12T04:54:18.673Z,1.91
2023-02-12T04:56:47.300Z,1.90
2023-02-12T04:59:15.761Z,1.93
2023-02-12T05:01:45.619Z,1.88
2023-02-12T05:04:15.914Z,1.87
2023-02-12T05:06:46.480Z,1.84
2023-02-12T05:09:16.865Z,1.84
2023-02-12T05:11:45.241Z,1.87
2023-02-12T05:14:13.835Z,1.91
2023-02-12T05:16:41.942Z,1.86
2023-02-12T05:19:10.512Z,1.87
2023-02-12T05:21:39.521Z,1.90
2023-02-12T05:24:09.842Z,1.80
2023-02-12T05:26:38.385Z,1.77
2023-02-12T05:29:06.434Z,1.78
2023-02-12T05:31:34.755Z,1.73
2023-02-12T05:34:02.831Z,1.71
2023-02-12T05:36:30.847Z,1.68
2023-02-12T05:39:00.751Z,1.67
2023-02-12T05:41:34.900Z,1.64
2023-02-12T05:44:03.034Z,1.63
2023-02-12T05:46:31.063Z,1.61
2023-02-12T05:48:59.345Z,1.57
2023-02-12T05:51:28.608Z,1.58
2023-02-12T05:53:59.959Z,1.55
2023-02-12T05:56:31.185Z,1.41
2023-02-12T05:59:02.396Z,1.49
2023-02-12T06:01:33.097Z,1.51
2023-02-12T06:04:01.443Z,1.55
2023-02-12T06:06:29.954Z,1.55
2023-02-12T06:08:58.472Z,1.56
2023-02-12T06:11:26.697Z,1.54
2023-02-12T06:13:56.059Z,1.53
2023-02-12T06:16:26.294Z,1.56
2023-02-12T06:18:56.049Z,1.55
2023-02-12T06:21:26.553Z,1.52
2023-02-12T06:23:54.782Z,1.51
2023-02-12T06:26:23.978Z,1.50
2023-02-12T06:28:52.255Z,1.47
2023-02-12T06:31:24.571Z,1.49
2023-02-12T06:33:53.446Z,1.52
2023-02-12T06:36:22.218Z,1.49
2023-02-12T06:38:50.322Z,1.47
2023-02-12T06:41:18.520Z,1.48
2023-02-12T06:43:46.529Z,1.49
2023-02-12T06:46:15.134Z,1.53
2023-02-12T06:48:44.531Z,1.54
2023-02-12T06:51:18.944Z,1.53
2023-02-12T06:53:46.935Z,1.51
2023-02-12T06:56:15.571Z,1.52
2023-02-12T06:58:46.478Z,1.57
2023-02-12T07:01:17.950Z,1.56
2023-02-12T07:03:50.210Z,1.54
2023-02-12T07:06:18.486Z,1.54
2023-02-12T07:08:46.709Z,1.57
2023-02-12T07:11:15.041Z,1.62
2023-02-12T07:13:43.659Z,1.63
2023-02-12T07:16:13.582Z,1.60
2023-02-12T07:18:41.882Z,1.60
2023-02-12T07:21:12.996Z,1.62
2023-02-12T07:23:41.683Z,1.67
2023-02-12T07:26:13.324Z,1.68
2023-02-12T07:28:41.716Z,1.75
2023-02-12T07:31:11.761Z,1.80
2023-02-12T07:33:40.830Z,1.82
2023-02-12T07:36:12.951Z,1.91
2023-02-12T07:38:40.998Z,1.98
2023-02-12T07:41:12.197Z,1.88
2023-02-12T07:43:41.253Z,1.91
2023-02-12T07:46:14.459Z,1.89
2023-02-12T07:48:42.544Z,1.71
2023-02-12T07:51:14.533Z,1.53
2023-02-12T07:53:43.091Z,1.70
2023-02-12T07:56:13.057Z,1.79
2023-02-12T07:58:42.749Z,1.95
2023-02-12T08:01:16.555Z,2.06
2023-02-12T08:03:45.739Z,2.18
2023-02-12T08:06:17.580Z,2.17
2023-02-12T08:08:46.066Z,2.21
2023-02-12T08:11:16.641Z,2.12
2023-02-12T08:13:44.816Z,1.95
2023-02-12T08:16:14.889Z,1.88
2023-02-12T08:18:43.494Z,1.93
2023-02-12T08:21:13.139Z,2.20
2023-02-12T08:23:43.597Z,2.36
2023-02-12T08:26:13.491Z,2.49
2023-02-12T08:28:45.129Z,2.59
2023-02-12T08:31:15.575Z,2.64
2023-02-12T08:33:45.210Z,2.70
2023-02-12T08:36:15.476Z,2.79
2023-02-12T08:38:46.035Z,2.79
2023-02-12T08:41:16.583Z,2.81
2023-02-12T08:43:45.308Z,2.90
2023-02-12T08:46:15.373Z,2.94
2023-02-12T08:48:44.052Z,2.94
2023-02-12T08:51:14.080Z,2.82
2023-02-12T08:53:45.785Z,2.77
2023-02-12T08:56:15.676Z,3.00
2023-02-12T08:58:44.494Z,3.12
2023-02-12T09:01:16.177Z,3.16
2023-02-12T09:03:44.955Z,3.28
2023-02-12T09:06:13.876Z,3.41
2023-02-12T09:08:42.266Z,3.42
2023-02-12T09:11:16.540Z,3.45
2023-02-12T09:13:46.111Z,3.46
2023-02-12T09:16:14.809Z,3.55
2023-02-12T09:18:43.505Z,3.57
2023-02-12T09:21:13.613Z,3.63
2023-02-12T09:23:42.153Z,3.59
2023-02-12T09:26:15.247Z,3.60
2023-02-12T09:28:43.821Z,3.82
2023-02-12T09:31:13.824Z,3.85
2023-02-12T09:33:42.911Z,3.80
2023-02-12T09:36:13.452Z,3.82
2023-02-12T09:38:42.005Z,3.95
2023-02-12T09:41:42.660Z,4.04
2023-02-12T09:44:16.439Z,4.12
2023-02-12T09:46:50.038Z,4.10
2023-02-12T09:49:29.521Z,4.20
2023-02-12T09:51:59.192Z,4.18
2023-02-12T09:54:32.731Z,4.12
2023-02-12T09:57:07.756Z,4.23
2023-02-12T09:59:40.376Z,4.34
2023-02-12T10:02:13.871Z,4.43
2023-02-12T10:04:58.738Z,4.56
2023-02-12T10:07:41.558Z,4.51
2023-02-12T10:10:25.351Z,4.45
2023-02-12T10:12:58.998Z,4.55
2023-02-12T10:15:36.560Z,4.73
2023-02-12T10:18:22.701Z,4.74
2023-02-12T10:21:06.276Z,4.68
2023-02-12T10:24:04.686Z,4.75
2023-02-12T10:26:36.946Z,4.76
2023-02-12T10:29:15.963Z,4.85
2023-02-12T10:31:47.029Z,4.96
2023-02-12T10:34:19.724Z,5.94
2023-02-12T10:36:49.686Z,5.66
2023-02-12T10:39:23.602Z,5.36
2023-02-12T10:41:59.304Z,5.39
2023-02-12T10:44:29.635Z,5.39
2023-02-12T10:46:57.620Z,5.47
2023-02-12T10:49:26.007Z,5.46
2023-02-12T10:52:20.461Z,5.48
2023-02-12T10:54:50.458Z,5.56
2023-02-12T10:57:23.101Z,5.69
2023-02-12T10:59:54.580Z,5.56
2023-02-12T11:02:26.083Z,5.63
2023-02-12T11:04:55.585Z,5.80
2023-02-12T11:07:24.802Z,5.98
2023-02-12T11:09:57.237Z,6.09
2023-02-12T11:12:32.882Z,6.20
2023-02-12T11:15:05.516Z,6.24
2023-02-12T11:17:37.644Z,6.30
2023-02-12T11:20:22.479Z,6.36
2023-02-12T11:22:56.585Z,6.35
2023-02-12T11:25:26.617Z,6.46
2023-02-12T11:28:08.190Z,6.61
2023-02-12T11:30:37.609Z,6.71
2023-02-12T11:33:23.251Z,6.78
2023-02-12T11:35:54.004Z,6.67
2023-02-12T11:38:26.106Z,6.78
2023-02-12T11:40:59.107Z,6.94
2023-02-12T11:43:31.041Z,7.02
2023-02-12T11:46:01.942Z,7.03
2023-02-12T11:48:33.950Z,7.18
2023-02-12T11:51:05.486Z,7.29
2023-02-12T11:53:35.954Z,7.27
2023-02-12T11:56:06.772Z,7.39
2023-02-12T11:58:34.856Z,7.51
2023-02-12T12:01:13.092Z,7.60
2023-02-12T12:03:49.323Z,7.55
2023-02-12T12:06:25.426Z,7.54
2023-02-12T12:08:59.604Z,7.61
2023-02-12T12:11:35.281Z,7.79
2023-02-12T12:14:09.372Z,7.94
2023-02-12T12:17:06.261Z,8.02
2023-02-12T12:19:54.461Z,8.10
2023-02-12T12:22:37.760Z,8.15
2023-02-12T12:25:13.917Z,8.18
2023-02-12T12:28:09.615Z,8.09
2023-02-12T12:30:58.846Z,8.16
2023-02-12T12:33:37.487Z,8.19
2023-02-12T12:36:36.239Z,8.29
2023-02-12T12:39:17.367Z,8.22
2023-02-12T12:41:57.449Z,8.35
2023-02-12T12:44:34.865Z,8.46
2023-02-12T12:47:22.461Z,8.58
2023-02-12T12:50:01.564Z,8.60
2023-02-12T12:52:51.484Z,8.73
2023-02-12T12:55:47.991Z,8.70
2023-02-12T12:58:28.556Z,8.75
2023-02-12T13:01:12.326Z,8.75
2023-02-12T13:04:02.299Z,8.80
2023-02-12T13:06:57.347Z,8.94
2023-02-12T13:09:38.238Z,9.06
2023-02-12T13:12:29.368Z,9.13
2023-02-12T13:15:03.187Z,9.10
2023-02-12T13:17:39.552Z,9.10
2023-02-12T13:20:15.325Z,9.26
2023-02-12T13:22:52.173Z,9.20
2023-02-12T13:25:29.857Z,9.22
2023-02-12T13:28:00.259Z,9.18
2023-02-12T13:30:31.788Z,9.20
2023-02-12T13:33:08.354Z,9.33
2023-02-12T13:35:42.410Z,9.53
2023-02-12T13:38:18.837Z,9.52
2023-02-12T13:40:49.701Z,9.66
2023-02-12T13:43:32.711Z,9.75
2023-02-12T13:46:09.564Z,9.84
2023-02-12T13:48:49.294Z,9.87
2023-02-12T13:51:27.238Z,9.88
2023-02-12T13:54:07.754Z,10.06
2023-02-12T13:56:42.501Z,10.25
2023-02-12T13:59:45.909Z,10.41
2023-02-12T14:02:52.060Z,10.36
2023-02-12T14:05:26.926Z,10.32
2023-02-12T14:07:57.781Z,10.47
2023-02-12T14:10:31.340Z,10.64
2023-02-12T14:13:11.739Z,10.64
2023-02-12T14:15:44.568Z,10.66
2023-02-12T14:18:34.010Z,10.71
2023-02-12T14:21:38.166Z,10.75
2023-02-12T14:24:45.624Z,10.72
2023-02-12T14:27:39.077Z,10.81
2023-02-12T14:30:32.810Z,10.91
2023-02-12T14:33:23.456Z,10.57
2023-02-12T14:36:15.597Z,10.68
2023-02-12T14:39:03.201Z,10.83
2023-02-12T14:41:41.840Z,10.99
2023-02-12T14:44:44.470Z,11.03
2023-02-12T14:47:51.244Z,11.09
2023-02-12T14:50:24.527Z,11.21
2023-02-12T14:53:01.325Z,11.18
2023-02-12T14:55:34.403Z,11.07
2023-02-12T14:58:05.931Z,11.20
2023-02-12T15:00:40.110Z,11.31
2023-02-12T15:03:26.572Z,11.26
2023-02-12T15:06:04.011Z,11.30
2023-02-12T15:08:44.799Z,11.30
2023-02-12T15:11:28.114Z,11.33
2023-02-12T15:14:01.130Z,11.49
2023-02-12T15:16:35.680Z,11.45
2023-02-12T15:19:13.517Z,11.56
2023-02-12T15:21:43.459Z,11.47
2023-02-12T15:24:13.744Z,11.48
2023-02-12T15:26:45.377Z,11.42
2023-02-12T15:29:22.193Z,11.45
2023-02-12T15:31:55.281Z,11.39
2023-02-12T15:34:25.896Z,11.40
2023-02-12T15:37:02.133Z,11.36
2023-02-12T15:39:39.104Z,11.09
2023-02-12T15:42:23.829Z,11.17
2023-02-12T15:44:51.825Z,11.08
2023-02-12T15:47:24.765Z,11.21
2023-02-12T15:50:00.287Z,11.14
2023-02-12T15:52:37.511Z,11.24
2023-02-12T15:55:07.432Z,11.09
2023-02-12T15:57:35.489Z,11.29
2023-02-12T16:00:08.987Z,11.19
2023-02-12T16:02:43.135Z,10.79
2023-02-12T16:05:16.723Z,10.65
2023-02-12T16:07:47.802Z,10.46
2023-02-12T16:10:17.388Z,10.20
2023-02-12T16:12:46.019Z,10.10
2023-02-12T16:15:29.004Z,10.07
2023-02-12T16:17:58.464Z,10.15
2023-02-12T16:20:28.741Z,10.17
2023-02-12T16:22:58.498Z,10.01
2023-02-12T16:25:29.561Z,9.96
2023-02-12T16:28:02.935Z,9.81
2023-02-12T16:30:32.892Z,9.60
2023-02-12T16:33:02.213Z,9.50
2023-02-12T16:35:32.561Z,9.47
2023-02-12T16:38:41.958Z,9.25
2023-02-12T16:41:23.555Z,9.14
2023-02-12T16:44:12.744Z,9.03
2023-02-12T16:46:47.227Z,8.71
2023-02-12T16:49:18.524Z,8.57
2023-02-12T16:51:47.604Z,8.46
2023-02-12T16:54:37.575Z,8.29
2023-02-12T16:57:05.708Z,8.25
2023-02-12T16:59:34.592Z,8.08
2023-02-12T17:02:05.291Z,8.10
2023-02-12T17:04:33.256Z,8.07
2023-02-12T17:07:01.293Z,8.04
2023-02-12T17:09:30.077Z,7.95
2023-02-12T17:11:59.423Z,7.83
2023-02-12T17:14:27.344Z,7.88
2023-02-12T17:16:55.394Z,7.85
2023-02-12T17:19:25.820Z,7.79
2023-02-12T17:21:54.593Z,7.73
2023-02-12T17:24:25.418Z,7.70
2023-02-12T17:26:53.643Z,7.66
2023-02-12T17:29:25.959Z,7.70
2023-02-12T17:31:56.203Z,7.70
2023-02-12T17:34:24.972Z,7.60
2023-02-12T17:36:53.720Z,7.60
2023-02-12T17:39:22.161Z,7.55
2023-02-12T17:41:51.563Z,7.47
2023-02-12T17:44:19.552Z,7.58
2023-02-12T17:46:48.926Z,7.59
2023-02-12T17:49:16.875Z,7.59
2023-02-12T17:51:44.838Z,7.58
2023-02-12T17:54:14.084Z,7.58
2023-02-12T17:56:42.059Z,7.56
2023-02-12T17:59:10.931Z,7.45
2023-02-12T18:01:40.493Z,7.41
2023-02-12T18:04:09.897Z,7.44
2023-02-12T18:06:37.931Z,7.42
2023-02-12T18:09:05.885Z,7.42
2023-02-12T18:11:34.190Z,7.44
2023-02-12T18:14:02.929Z,7.38
2023-02-12T18:16:34.924Z,7.37
2023-02-12T18:19:06.914Z,7.43
2023-02-12T18:21:36.432Z,7.44
2023-02-12T18:24:05.010Z,7.44
2023-02-12T18:26:34.146Z,7.42
2023-02-12T18:29:02.931Z,7.40
2023-02-12T18:31:31.350Z,7.39
2023-02-12T18:34:00.149Z,7.38
2023-02-12T18:36:28.149Z,7.36
2023-02-12T18:38:57.524Z,7.31
2023-02-12T18:41:27.297Z,7.24
2023-02-12T18:43:55.708Z,7.17
2023-02-12T18:46:28.767Z,7.21
2023-02-12T18:48:57.519Z,7.20
2023-02-12T18:51:28.820Z,7.15
2023-02-12T18:54:01.504Z,7.19
2023-02-12T18:56:30.527Z,7.16
2023-02-12T18:58:59.931Z,7.18
2023-02-12T19:01:29.351Z,7.16
2023-02-12T19:04:00.160Z,7.12
2023-02-12T19:06:29.569Z,7.11
2023-02-12T19:09:00.150Z,7.00
2023-02-12T19:11:29.144Z,6.85
2023-02-12T19:13:57.409Z,6.49
2023-02-12T19:16:26.145Z,6.33
2023-02-12T19:18:58.249Z,6.26
2023-02-12T19:21:27.075Z,6.19
2023-02-12T19:23:55.436Z,6.14
2023-02-12T19:26:30.246Z,6.08
2023-02-12T19:28:58.902Z,6.10
2023-02-12T19:31:29.723Z,6.11
2023-02-12T19:33:59.638Z,6.06
2023-02-12T19:36:29.107Z,6.07
2023-02-12T19:38:57.412Z,6.03
2023-02-12T19:41:28.725Z,6.03
2023-02-12T19:43:59.335Z,5.96
2023-02-12T19:46:29.949Z,5.97
2023-02-12T19:49:00.993Z,5.87
2023-02-12T19:51:30.714Z,5.84
2023-02-12T19:54:01.663Z,5.85
2023-02-12T19:56:31.338Z,5.83
2023-02-12T19:59:00.104Z,5.81
2023-02-12T20:01:28.818Z,5.80
2023-02-12T20:03:57.035Z,5.78
2023-02-12T20:06:27.564Z,5.67
2023-02-12T20:08:56.078Z,5.66
2023-02-12T20:11:26.224Z,5.66
2023-02-12T20:13:56.274Z,5.64
2023-02-12T20:16:25.774Z,5.65
2023-02-12T20:18:55.672Z,5.65
2023-02-12T20:21:26.813Z,5.55
2023-02-12T20:23:55.261Z,5.55
2023-02-12T20:26:24.608Z,5.44
2023-02-12T20:28:53.123Z,5.42
2023-02-12T20:31:24.780Z,5.39
2023-02-12T20:33:55.738Z,5.34
2023-02-12T20:36:24.513Z,5.32
2023-02-12T20:38:54.268Z,5.33
2023-02-12T20:41:22.217Z,5.24
2023-02-12T20:43:50.455Z,5.29
2023-02-12T20:46:21.404Z,5.20
2023-02-12T20:48:51.062Z,5.21
2023-02-12T20:51:20.893Z,5.25
2023-02-12T20:53:54.502Z,5.17
2023-02-12T20:56:25.405Z,5.18
2023-02-12T20:58:54.070Z,5.16
2023-02-12T21:01:24.729Z,5.11
2023-02-12T21:03:55.613Z,5.07
2023-02-12T21:06:25.758Z,5.04
2023-02-12T21:08:53.804Z,4.95
2023-02-12T21:11:23.570Z,4.95
2023-02-12T21:14:02.158Z,4.89
2023-02-12T21:16:32.864Z,4.90
2023-02-12T21:19:02.723Z,4.92
2023-02-12T21:21:32.374Z,4.89
2023-02-12T21:24:02.212Z,4.89
2023-02-12T21:26:32.112Z,4.92
2023-02-12T21:29:02.173Z,4.80
2023-02-12T21:31:32.467Z,4.71
2023-02-12T21:34:03.619Z,4.71
2023-02-12T21:36:33.167Z,4.62
2023-02-12T21:39:03.012Z,4.70
2023-02-12T21:41:34.518Z,4.68
2023-02-12T21:44:04.395Z,4.68
2023-02-12T21:46:32.730Z,4.68
2023-02-12T21:49:02.433Z,4.71
2023-02-12T21:51:32.090Z,4.66
2023-02-12T21:54:04.730Z,4.61
2023-02-12T21:56:33.041Z,4.60
2023-02-12T21:59:01.328Z,4.57
2023-02-12T22:01:32.274Z,4.59
2023-02-12T22:04:03.527Z,4.55
2023-02-12T22:06:31.923Z,4.56
2023-02-12T22:09:03.404Z,4.60
2023-02-12T22:11:31.397Z,4.60
2023-02-12T22:13:59.372Z,4.63
2023-02-12T22:16:28.896Z,4.56
2023-02-12T22:18:59.325Z,4.56
2023-02-12T22:21:30.368Z,4.52
2023-02-12T22:24:01.046Z,4.51
2023-02-12T22:26:30.852Z,4.49
2023-02-12T22:29:00.745Z,4.45
2023-02-12T22:31:31.901Z,4.42
2023-02-12T22:34:02.051Z,4.40
2023-02-12T22:36:31.928Z,4.42
2023-02-12T22:39:01.619Z,4.39
2023-02-12T22:41:30.364Z,4.36
2023-02-12T22:44:00.270Z,4.36
2023-02-12T22:46:29.023Z,4.32
2023-02-12T22:48:57.005Z,4.31
2023-02-12T22:51:28.493Z,4.28
2023-02-12T22:53:58.509Z,4.26
2023-02-12T22:56:27.194Z,4.25
2023-02-12T22:58:56.822Z,4.29
2023-02-12T23:01:25.554Z,4.28
2023-02-12T23:03:53.976Z,4.25
2023-02-12T23:06:23.636Z,4.21
2023-02-12T23:08:52.986Z,4.22
2023-02-12T23:11:24.463Z,4.20
2023-02-12T23:13:52.666Z,4.22
2023-02-12T23:16:20.713Z,4.21
2023-02-12T23:18:48.985Z,4.18
2023-02-12T23:21:17.857Z,4.18
2023-02-12T23:23:45.792Z,4.21
2023-02-12T23:26:13.777Z,4.17
2023-02-12T23:28:43.176Z,4.18
2023-02-12T23:31:11.268Z,4.21
2023-02-12T23:33:39.292Z,4.19
2023-02-12T23:36:08.101Z,4.15
2023-02-12T23:38:36.064Z,4.16
2023-02-12T23:41:04.306Z,4.14
2023-02-12T23:43:33.383Z,4.09
2023-02-12T23:46:03.808Z,4.04
2023-02-12T23:48:31.788Z,4.06
2023-02-12T23:50:59.909Z,4.09
2023-02-12T23:53:28.058Z,4.04
2023-02-12T23:55:56.037Z,4.01
2023-02-12T23:58:24.181Z,3.96
